Time,TemperatureF,DewpointF,PressureIn,WindDirection,WindDirectionDegrees,WindSpeedMPH,WindSpeedGustMPH,Humidity,HourlyPrecipIn,Conditions,Clouds,dailyrainin,SolarRadiationWatts/m^2,SoftwareType,DateUTC
2013-05-07 00:23:00,55.0,54.0,-100.00,ESE,120,8.0,11.0,98,0.00,,,-99.99,0.000000,,2013-05-07 10:23:00,
2013-05-07 00:32:00,55.0,54.0,-100.00,ESE,120,8.0,11.0,98,0.00,,,-99.99,0.000000,,2013-05-07 10:32:00,
2013-05-07 00:42:00,55.0,54.0,-100.00,ESE,120,8.0,11.0,98,0.00,,,-99.99,0.000000,,2013-05-07 10:42:00,
2013-05-07 00:52:00,55.0,54.0,-100.00,ESE,120,8.0,11.0,98,0.00,,,-99.99,0.000000,,2013-05-07 10:52:00,
2013-05-07 01:22:00,55.0,54.0,-100.00,SE,131,8.0,12.0,97,0.00,,,-99.99,0.000000,,2013-05-07 11:22:00,
2013-05-07 01:32:00,55.0,54.0,-100.00,SE,131,8.0,12.0,97,0.00,,,-99.99,0.000000,,2013-05-07 11:32:00,
2013-05-07 01:42:00,55.0,54.0,-100.00,SE,131,8.0,12.0,97,0.00,,,-99.99,0.000000,,2013-05-07 11:42:00,
2013-05-07 01:51:00,55.0,54.0,-100.00,SE,131,8.0,12.0,97,0.00,,,-99.99,0.000000,,2013-05-07 11:51:00,
2013-05-07 02:21:00,52.0,51.0,-100.00,ESE,117,10.0,13.0,97,0.00,,,-99.99,0.000000,,2013-05-07 12:21:00,
2013-05-07 02:32:00,52.0,51.0,-100.00,ESE,117,10.0,13.0,97,0.00,,,-99.99,0.000000,,2013-05-07 12:32:00,
2013-05-07 02:42:00,52.0,51.0,-100.00,ESE,117,10.0,13.0,97,0.00,,,-99.99,0.000000,,2013-05-07 12:42:00,
2013-05-07 02:52:00,52.0,51.0,-100.00,ESE,117,10.0,13.0,97,0.00,,,-99.99,0.000000,,2013-05-07 12:52:00,
2013-05-07 03:21:00,52.0,51.0,-100.00,SE,139,7.0,12.0,95,0.00,,,-99.99,0.000000,,2013-05-07 13:21:00,
2013-05-07 03:32:00,52.0,51.0,-100.00,SE,139,7.0,12.0,95,0.00,,,-99.99,0.000000,,2013-05-07 13:32:00,
2013-05-07 03:42:00,52.0,51.0,-100.00,SE,139,7.0,12.0,95,0.00,,,-99.99,0.000000,,2013-05-07 13:42:00,
2013-05-07 03:52:00,52.0,51.0,-100.00,SE,139,7.0,12.0,95,0.00,,,-99.99,0.000000,,2013-05-07 13:52:00,
2013-05-07 04:21:00,51.0,50.0,-100.00,SE,127,10.0,12.0,98,0.00,,,-99.99,0.000000,,2013-05-07 14:21:00,
2013-05-07 04:31:00,51.0,50.0,-100.00,SE,127,10.0,12.0,98,0.00,,,-99.99,0.000000,,2013-05-07 14:31:00,
2013-05-07 04:42:00,51.0,50.0,-100.00,SE,127,10.0,12.0,98,0.00,,,-99.99,0.000000,,2013-05-07 14:42:00,
2013-05-07 04:52:00,51.0,50.0,-100.00,SE,127,10.0,12.0,98,0.00,,,-99.99,0.000000,,2013-05-07 14:52:00,
2013-05-07 05:21:00,49.0,48.0,-100.00,ESE,122,10.0,12.0,98,0.00,,,-99.99,0.000000,,2013-05-07 15:21:00,
2013-05-07 05:33:00,49.0,48.0,-100.00,ESE,122,10.0,12.0,98,0.00,,,-99.99,0.000000,,2013-05-07 15:33:00,
2013-05-07 05:42:00,49.0,48.0,-100.00,ESE,122,10.0,12.0,98,0.00,,,-99.99,0.000000,,2013-05-07 15:42:00,
2013-05-07 05:52:00,49.0,48.0,-100.00,ESE,122,10.0,12.0,98,0.00,,,-99.99,0.000000,,2013-05-07 15:52:00,
2013-05-07 08:21:00,66.0,53.0,-100.00,North,351,4.0,10.0,63,-99.99,,,-99.99,350.000000,,2013-05-07 18:21:00,
2013-05-07 08:31:00,66.0,53.0,-100.00,North,351,4.0,10.0,63,-99.99,,,-99.99,350.000000,,2013-05-07 18:31:00,
2013-05-07 08:41:00,66.0,53.0,-100.00,North,351,4.0,10.0,63,-99.99,,,-99.99,350.000000,,2013-05-07 18:41:00,
2013-05-07 08:51:00,66.0,53.0,-100.00,North,351,4.0,10.0,63,-99.99,,,-99.99,350.000000,,2013-05-07 18:51:00,
2013-05-07 09:21:00,66.0,55.0,-100.00,NW,315,8.0,13.0,68,0.00,,,-99.99,614.000000,,2013-05-07 19:21:00,
2013-05-07 09:32:00,66.0,55.0,-100.00,NW,315,8.0,13.0,68,0.00,,,-99.99,614.000000,,2013-05-07 19:32:00,
2013-05-07 09:41:00,66.0,55.0,-100.00,NW,315,8.0,13.0,68,0.00,,,-99.99,614.000000,,2013-05-07 19:41:00,
2013-05-07 09:52:00,66.0,55.0,-100.00,NW,315,8.0,13.0,68,0.00,,,-99.99,614.000000,,2013-05-07 19:52:00,
2013-05-07 10:21:00,68.0,58.0,-100.00,NNW,332,7.0,16.0,71,0.00,,,-99.99,718.000000,,2013-05-07 20:21:00,
2013-05-07 10:32:00,68.0,58.0,-100.00,NNW,332,7.0,16.0,71,0.00,,,-99.99,718.000000,,2013-05-07 20:32:00,
2013-05-07 10:41:00,68.0,58.0,-100.00,NNW,332,7.0,16.0,71,0.00,,,-99.99,718.000000,,2013-05-07 20:41:00,
2013-05-07 10:51:00,68.0,58.0,-100.00,NNW,332,7.0,16.0,71,0.00,,,-99.99,718.000000,,2013-05-07 20:51:00,
2013-05-07 11:21:00,68.0,57.0,-100.00,NNW,329,10.0,16.0,68,0.00,,,0.00,860.000000,,2013-05-07 21:21:00,
2013-05-07 11:32:00,68.0,57.0,-100.00,NNW,329,10.0,16.0,68,0.00,,,0.00,860.000000,,2013-05-07 21:32:00,
2013-05-07 11:42:00,68.0,57.0,-100.00,NNW,329,10.0,16.0,68,0.00,,,0.00,860.000000,,2013-05-07 21:42:00,
2013-05-07 11:52:00,68.0,57.0,-100.00,NNW,329,10.0,16.0,68,0.00,,,0.00,860.000000,,2013-05-07 21:52:00,
2013-05-07 12:22:00,70.0,59.0,-100.00,NW,317,10.0,16.0,69,0.00,,,0.00,775.000000,,2013-05-07 22:22:00,
2013-05-07 12:32:00,70.0,59.0,-100.00,NW,317,10.0,16.0,69,0.00,,,0.00,775.000000,,2013-05-07 22:32:00,
2013-05-07 12:42:00,70.0,59.0,-100.00,NW,317,10.0,16.0,69,0.00,,,0.00,775.000000,,2013-05-07 22:42:00,
2013-05-07 12:52:00,70.0,59.0,-100.00,NW,317,10.0,16.0,69,0.00,,,0.00,775.000000,,2013-05-07 22:52:00,
2013-05-07 13:21:00,69.0,62.0,-100.00,NW,319,10.0,18.0,78,0.00,,,0.00,635.000000,,2013-05-07 23:21:00,
2013-05-07 13:32:00,69.0,62.0,-100.00,NW,319,10.0,18.0,78,0.00,,,0.00,635.000000,,2013-05-07 23:32:00,
2013-05-07 13:41:00,69.0,62.0,-100.00,NW,319,10.0,18.0,78,0.00,,,0.00,635.000000,,2013-05-07 23:41:00,
2013-05-07 13:52:00,69.0,62.0,-100.00,NW,319,10.0,18.0,78,0.00,,,0.00,635.000000,,2013-05-07 23:52:00,
2013-05-07 14:21:00,65.0,61.0,-100.00,NNW,327,9.0,18.0,88,0.00,,,0.00,323.000000,,2013-05-08 00:21:00,
2013-05-07 14:32:00,65.0,61.0,-100.00,NNW,327,9.0,18.0,88,0.00,,,0.00,323.000000,,2013-05-08 00:32:00,
2013-05-07 14:42:00,65.0,61.0,-100.00,NNW,327,9.0,18.0,88,0.00,,,0.00,323.000000,,2013-05-08 00:42:00,
2013-05-07 14:51:00,65.0,61.0,-100.00,NNW,327,9.0,18.0,88,0.00,,,0.00,323.000000,,2013-05-08 00:51:00,
2013-05-07 15:21:00,61.0,61.0,-100.00,NNW,336,8.0,15.0,100,0.00,,,0.00,80.000000,,2013-05-08 01:21:00,
2013-05-07 15:31:00,61.0,61.0,-100.00,NNW,336,8.0,15.0,100,0.00,,,0.00,80.000000,,2013-05-08 01:31:00,
2013-05-07 15:42:00,61.0,61.0,-100.00,NNW,336,8.0,15.0,100,0.00,,,0.00,80.000000,,2013-05-08 01:42:00,
2013-05-07 15:52:00,61.0,61.0,-100.00,NNW,336,8.0,15.0,100,0.00,,,0.00,80.000000,,2013-05-08 01:52:00,
2013-05-07 16:22:00,62.0,62.0,-100.00,NNE,12,6.0,11.0,100,0.00,,,0.00,48.000000,,2013-05-08 02:22:00,
2013-05-07 16:31:00,62.0,62.0,-100.00,NNE,12,6.0,11.0,100,0.00,,,0.00,48.000000,,2013-05-08 02:31:00,
2013-05-07 16:42:00,62.0,62.0,-100.00,NNE,12,6.0,11.0,100,0.00,,,0.00,48.000000,,2013-05-08 02:42:00,
2013-05-07 16:51:00,62.0,62.0,-100.00,NNE,12,6.0,11.0,100,0.00,,,0.00,48.000000,,2013-05-08 02:51:00,
2013-05-07 17:21:00,61.0,61.0,-100.00,North,352,2.0,9.0,100,0.00,,,0.00,32.000000,,2013-05-08 03:21:00,
2013-05-07 17:32:00,61.0,61.0,-100.00,North,352,2.0,9.0,100,0.00,,,0.00,32.000000,,2013-05-08 03:32:00,
2013-05-07 17:43:00,61.0,61.0,-100.00,North,352,2.0,9.0,100,0.00,,,0.00,32.000000,,2013-05-08 03:43:00,
2013-05-07 17:52:00,61.0,61.0,-100.00,North,352,2.0,9.0,100,0.00,,,0.00,32.000000,,2013-05-08 03:52:00,
2013-05-07 18:22:00,61.0,61.0,-100.00,North,359,3.0,6.0,100,0.00,,,0.00,44.000000,,2013-05-08 04:22:00,
2013-05-07 18:33:00,61.0,61.0,-100.00,North,359,3.0,6.0,100,0.00,,,0.00,44.000000,,2013-05-08 04:33:00,
2013-05-07 18:42:00,61.0,61.0,-100.00,North,359,3.0,6.0,100,0.00,,,0.00,44.000000,,2013-05-08 04:42:00,
2013-05-07 18:52:00,61.0,61.0,-100.00,North,359,3.0,6.0,100,0.00,,,0.00,44.000000,,2013-05-08 04:52:00,
2013-05-07 19:22:00,62.0,62.0,-100.00,North,354,3.0,5.0,100,0.00,,,0.00,14.000000,,2013-05-08 05:22:00,
2013-05-07 19:32:00,62.0,62.0,-100.00,North,354,3.0,5.0,100,0.00,,,0.00,14.000000,,2013-05-08 05:32:00,
2013-05-07 19:42:00,62.0,62.0,-100.00,North,354,3.0,5.0,100,0.00,,,0.00,14.000000,,2013-05-08 05:42:00,
2013-05-07 19:52:00,62.0,62.0,-100.00,North,354,3.0,5.0,100,0.00,,,0.00,14.000000,,2013-05-08 05:52:00,
2013-05-07 20:21:00,61.0,61.0,-100.00,NNW,333,4.0,8.0,100,0.00,,,0.00,0.000000,,2013-05-08 06:21:00,
2013-05-07 20:32:00,61.0,61.0,-100.00,NNW,333,4.0,8.0,100,0.00,,,0.00,0.000000,,2013-05-08 06:32:00,
2013-05-07 20:41:00,61.0,61.0,-100.00,NNW,333,4.0,8.0,100,0.00,,,0.00,0.000000,,2013-05-08 06:41:00,
2013-05-07 20:51:00,61.0,61.0,-100.00,NNW,333,4.0,8.0,100,0.00,,,0.00,0.000000,,2013-05-08 06:51:00,
2013-05-07 21:21:00,59.0,59.0,-100.00,NW,312,1.0,6.0,100,0.00,,,0.00,0.000000,,2013-05-08 07:21:00,
2013-05-07 21:31:00,59.0,59.0,-100.00,NW,312,1.0,6.0,100,0.00,,,0.00,0.000000,,2013-05-08 07:31:00,
2013-05-07 21:42:00,59.0,59.0,-100.00,NW,312,1.0,6.0,100,0.00,,,0.00,0.000000,,2013-05-08 07:42:00,
2013-05-07 21:52:00,59.0,59.0,-100.00,NW,312,1.0,6.0,100,0.00,,,0.00,0.000000,,2013-05-08 07:52:00,
2013-05-07 22:21:00,58.0,58.0,-100.00,SE,135,3.0,6.0,100,0.00,,,0.00,0.000000,,2013-05-08 08:21:00,
2013-05-07 22:31:00,58.0,58.0,-100.00,SE,135,3.0,6.0,100,0.00,,,0.00,0.000000,,2013-05-08 08:31:00,
2013-05-07 22:42:00,58.0,58.0,-100.00,SE,135,3.0,6.0,100,0.00,,,0.00,0.000000,,2013-05-08 08:42:00,
2013-05-07 22:51:00,58.0,58.0,-100.00,SE,135,3.0,6.0,100,0.00,,,0.00,0.000000,,2013-05-08 08:51:00,
2013-05-07 23:21:00,60.0,60.0,-100.00,SSE,162,7.0,9.0,100,0.00,,,0.00,0.000000,,2013-05-08 09:21:00,
2013-05-07 23:32:00,60.0,60.0,-100.00,SSE,162,7.0,9.0,100,0.00,,,0.00,0.000000,,2013-05-08 09:32:00,
2013-05-07 23:42:00,60.0,60.0,-100.00,SSE,162,7.0,9.0,100,0.00,,,0.00,0.000000,,2013-05-08 09:42:00,
2013-05-07 23:52:00,60.0,60.0,-100.00,SSE,162,7.0,9.0,100,0.00,,,0.00,0.000000,,2013-05-08 09:52:00,